createdAt,value
2022-11-06T00:00:55.150Z,7.00
2022-11-06T00:03:26.167Z,5.40
2022-11-06T00:06:14.701Z,3.80
2022-11-06T00:08:45.674Z,5.90
2022-11-06T00:11:18.505Z,3.70
2022-11-06T00:13:49.921Z,6.50
2022-11-06T00:16:21.409Z,5.10
2022-11-06T00:18:52.665Z,5.20
2022-11-06T00:21:26.092Z,6.20
2022-11-06T00:23:58.138Z,5.60
2022-11-06T00:26:31.058Z,5.70
2022-11-06T00:29:02.842Z,6.50
2022-11-06T00:31:36.956Z,4.40
2022-11-06T00:34:08.272Z,4.10
2022-11-06T00:36:39.119Z,4.70
2022-11-06T00:39:12.023Z,5.10
2022-11-06T00:41:42.811Z,5.40
2022-11-06T00:44:13.765Z,4.70
2022-11-06T00:46:44.443Z,5.20
2022-11-06T00:49:15.858Z,5.70
2022-11-06T00:51:46.565Z,4.70
2022-11-06T00:54:17.602Z,5.50
2022-11-06T00:56:48.307Z,6.10
2022-11-06T00:59:19.212Z,3.80
2022-11-06T01:01:50.087Z,4.60
2022-11-06T01:04:23.207Z,4.40
2022-11-06T01:06:56.774Z,4.70
2022-11-06T01:09:29.038Z,5.20
2022-11-06T01:12:16.422Z,4.60
2022-11-06T01:14:47.277Z,6.50
2022-11-06T01:17:18.061Z,4.70
2022-11-06T01:19:48.837Z,4.60
2022-11-06T01:22:19.639Z,4.50
2022-11-06T01:24:50.431Z,4.00
2022-11-06T01:27:28.516Z,5.00
2022-11-06T01:29:59.227Z,5.10
2022-11-06T01:32:29.872Z,4.40
2022-11-06T01:35:00.627Z,4.70
2022-11-06T01:37:31.322Z,4.80
2022-11-06T01:40:02.049Z,6.10
2022-11-06T01:42:32.703Z,6.50
2022-11-06T01:45:22.096Z,5.40
2022-11-06T01:47:53.148Z,5.90
2022-11-06T01:50:24.217Z,4.50
2022-11-06T01:52:55.275Z,5.30
2022-11-06T01:55:30.967Z,5.50
2022-11-06T01:58:04.470Z,4.70
2022-11-06T02:00:35.658Z,4.80
2022-11-06T02:03:06.834Z,4.40
2022-11-06T02:05:37.865Z,4.20
2022-11-06T02:08:11.629Z,5.30
2022-11-06T02:10:43.102Z,4.70
2022-11-06T02:13:33.532Z,4.30
2022-11-06T02:16:15.838Z,4.80
2022-11-06T02:19:17.746Z,5.00
2022-11-06T02:22:06.073Z,4.10
2022-11-06T02:24:57.947Z,5.10
2022-11-06T02:27:30.790Z,3.90
2022-11-06T02:32:38.109Z,4.10
2022-11-06T02:35:19.511Z,4.50
2022-11-06T02:37:54.820Z,3.30
2022-11-06T02:40:33.477Z,4.50
2022-11-06T02:43:08.809Z,4.60
2022-11-06T02:45:47.244Z,5.00
2022-11-06T02:48:22.901Z,4.00
2022-11-06T02:50:57.713Z,4.70
2022-11-06T02:53:31.579Z,4.50
2022-11-06T02:56:08.223Z,3.60
2022-11-06T02:58:48.832Z,3.50
2022-11-06T03:01:27.709Z,5.30
2022-11-06T03:04:04.209Z,4.00
2022-11-06T03:06:39.120Z,5.20
2022-11-06T03:09:15.710Z,4.60
2022-11-06T03:11:53.039Z,3.90
2022-11-06T03:14:30.528Z,4.40
2022-11-06T03:17:07.152Z,3.60
2022-11-06T03:19:47.712Z,4.50
2022-11-06T03:22:27.767Z,4.20
2022-11-06T03:25:06.743Z,6.10
2022-11-06T03:27:41.323Z,4.40
2022-11-06T03:30:16.683Z,6.60
2022-11-06T03:32:51.958Z,12.00
2022-11-06T03:35:30.033Z,8.70
2022-11-06T03:38:04.549Z,6.80
2022-11-06T03:40:39.491Z,5.90
2022-11-06T03:43:14.182Z,4.30
2022-11-06T03:45:48.088Z,4.10
2022-11-06T03:48:24.857Z,5.00
2022-11-06T03:51:02.162Z,5.10
2022-11-06T03:53:38.824Z,4.90
2022-11-06T03:56:15.850Z,5.50
2022-11-06T03:58:49.949Z,6.20
2022-11-06T04:01:29.312Z,5.60
2022-11-06T04:04:04.322Z,5.40
2022-11-06T04:06:38.681Z,4.40
2022-11-06T04:09:30.165Z,5.90
2022-11-06T04:12:20.482Z,6.00
2022-11-06T04:14:57.526Z,5.80
2022-11-06T04:17:31.087Z,4.40
2022-11-06T04:20:08.012Z,4.50
2022-11-06T04:22:54.766Z,3.90
2022-11-06T04:25:53.657Z,5.30
2022-11-06T04:28:36.891Z,4.40
2022-11-06T04:31:14.467Z,5.70
2022-11-06T04:33:56.528Z,4.50
2022-11-06T04:36:36.325Z,5.90
2022-11-06T04:39:13.922Z,4.00
2022-11-06T04:41:48.546Z,4.00
2022-11-06T04:44:26.381Z,4.30
2022-11-06T04:47:01.555Z,3.50
2022-11-06T04:49:36.582Z,6.90
2022-11-06T04:52:11.108Z,5.00
2022-11-06T04:54:42.692Z,5.20
2022-11-06T04:57:13.875Z,5.50
2022-11-06T04:59:44.607Z,4.00
2022-11-06T05:02:15.580Z,5.50
2022-11-06T05:04:46.528Z,8.20
2022-11-06T05:07:17.658Z,6.40
2022-11-06T05:09:48.678Z,4.10
2022-11-06T05:12:19.487Z,5.30
2022-11-06T05:14:50.469Z,8.20
2022-11-06T05:17:21.301Z,6.40
2022-11-06T05:19:52.006Z,7.10
2022-11-06T05:22:40.497Z,5.30
2022-11-06T05:25:11.740Z,5.50
2022-11-06T05:27:42.570Z,4.10
2022-11-06T05:30:14.752Z,4.60
2022-11-06T05:32:45.440Z,4.10
2022-11-06T05:35:16.501Z,3.30
2022-11-06T05:37:47.278Z,3.30
2022-11-06T05:40:18.214Z,3.90
2022-11-06T05:42:48.902Z,5.10
2022-11-06T05:45:19.739Z,4.50
2022-11-06T05:47:50.479Z,7.50
2022-11-06T05:50:21.224Z,6.20
2022-11-06T05:52:51.986Z,5.10
2022-11-06T05:55:23.555Z,3.40
2022-11-06T05:57:54.277Z,4.30
2022-11-06T06:00:26.163Z,5.80
2022-11-06T06:02:57.055Z,4.10
2022-11-06T06:05:27.839Z,4.40
2022-11-06T06:07:58.597Z,6.30
2022-11-06T06:10:29.317Z,7.70
2022-11-06T06:13:00.159Z,5.10
2022-11-06T06:15:30.818Z,5.60
2022-11-06T06:18:01.534Z,4.50
2022-11-06T06:20:32.291Z,3.60
2022-11-06T06:23:03.370Z,6.00
2022-11-06T06:25:34.263Z,5.80
2022-11-06T06:28:05.011Z,7.00
2022-11-06T06:30:36.183Z,5.70
2022-11-06T06:33:08.771Z,4.70
2022-11-06T06:35:39.573Z,4.90
2022-11-06T06:38:10.612Z,5.50
2022-11-06T06:40:41.577Z,6.80
2022-11-06T06:43:12.425Z,4.80
2022-11-06T06:45:43.161Z,4.90
2022-11-06T06:48:14.466Z,4.30
2022-11-06T06:50:45.453Z,4.40
2022-11-06T06:53:16.179Z,4.30
2022-11-06T06:55:46.821Z,5.40
2022-11-06T06:58:18.189Z,7.90
2022-11-06T07:00:49.691Z,8.10
2022-11-06T07:03:20.586Z,6.70
2022-11-06T07:05:51.248Z,6.00
2022-11-06T07:08:22.321Z,5.90
2022-11-06T07:10:53.103Z,6.90
2022-11-06T07:13:23.770Z,8.00
2022-11-06T07:15:54.579Z,8.30
2022-11-06T07:18:25.507Z,7.20
2022-11-06T07:20:56.203Z,6.70
2022-11-06T07:23:26.887Z,10.30
2022-11-06T07:25:57.819Z,8.90
2022-11-06T07:28:28.494Z,10.10
2022-11-06T07:31:02.366Z,11.50
2022-11-06T07:33:33.721Z,11.30
2022-11-06T07:36:09.956Z,7.20
2022-11-06T07:38:42.438Z,7.50
2022-11-06T07:41:15.692Z,8.50
2022-11-06T07:43:50.080Z,7.80
2022-11-06T07:46:20.978Z,7.90
2022-11-06T07:48:51.664Z,7.20
2022-11-06T07:51:22.325Z,10.70
2022-11-06T07:53:53.077Z,10.60
2022-11-06T07:56:23.940Z,7.70
2022-11-06T07:58:54.625Z,9.10
2022-11-06T08:01:25.315Z,10.80
2022-11-06T08:03:56.195Z,4.80
2022-11-06T08:06:27.301Z,6.90
2022-11-06T08:08:59.203Z,8.00
2022-11-06T08:11:30.036Z,7.30
2022-11-06T08:14:02.787Z,4.70
2022-11-06T08:16:33.760Z,3.40
2022-11-06T08:19:04.785Z,4.70
2022-11-06T08:21:35.510Z,5.90
2022-11-06T08:24:07.206Z,5.60
2022-11-06T08:26:37.896Z,7.30
2022-11-06T08:29:09.436Z,5.50
2022-11-06T08:31:40.444Z,8.50
2022-11-06T08:34:11.132Z,8.90
2022-11-06T08:36:49.280Z,8.10
2022-11-06T08:39:22.848Z,8.20
2022-11-06T08:41:53.579Z,10.00
2022-11-06T08:44:26.057Z,6.00
2022-11-06T08:49:25.858Z,6.50
2022-11-06T08:51:56.867Z,4.60
2022-11-06T08:54:27.647Z,6.80
2022-11-06T08:57:00.321Z,5.20
2022-11-06T08:59:30.951Z,6.20
2022-11-06T09:02:02.373Z,7.70
2022-11-06T09:04:36.157Z,8.10
2022-11-06T09:07:11.143Z,4.80
2022-11-06T09:09:41.847Z,6.60
2022-11-06T09:12:12.924Z,8.40
2022-11-06T09:14:43.630Z,9.30
2022-11-06T09:17:14.281Z,6.90
2022-11-06T09:19:45.079Z,7.60
2022-11-06T09:22:15.840Z,6.80
2022-11-06T09:25:04.185Z,7.30
2022-11-06T09:27:41.982Z,6.10
2022-11-06T09:30:15.986Z,7.50
2022-11-06T09:32:50.888Z,5.70
2022-11-06T09:35:22.974Z,5.10
2022-11-06T09:37:54.254Z,7.00
2022-11-06T09:40:31.304Z,6.40
2022-11-06T09:43:13.165Z,6.00
2022-11-06T09:45:44.920Z,5.70
2022-11-06T09:48:23.038Z,6.60
2022-11-06T09:50:58.001Z,4.80
2022-11-06T09:53:34.248Z,4.90
2022-11-06T09:56:10.991Z,6.00
2022-11-06T09:58:45.337Z,6.10
2022-11-06T10:01:26.773Z,5.60
2022-11-06T10:04:01.268Z,7.00
2022-11-06T10:06:32.161Z,4.10
2022-11-06T10:09:06.698Z,7.00
2022-11-06T10:11:55.570Z,5.60
2022-11-06T10:14:41.483Z,3.90
2022-11-06T10:17:21.039Z,7.70
2022-11-06T10:19:57.143Z,5.90
2022-11-06T10:22:37.597Z,4.20
2022-11-06T10:25:22.021Z,5.10
2022-11-06T10:28:03.002Z,4.30
2022-11-06T10:30:43.194Z,5.90
2022-11-06T10:33:25.611Z,5.20
2022-11-06T10:36:03.669Z,3.10
2022-11-06T10:38:39.183Z,5.60
2022-11-06T10:41:18.292Z,4.60
2022-11-06T10:43:54.265Z,6.00
2022-11-06T10:46:34.888Z,5.00
2022-11-06T10:49:12.612Z,5.10
2022-11-06T10:52:01.988Z,4.10
2022-11-06T10:54:48.763Z,4.70
2022-11-06T10:57:28.041Z,4.10
2022-11-06T10:59:59.193Z,4.30
2022-11-06T11:02:35.284Z,4.50
2022-11-06T11:05:15.551Z,5.40
2022-11-06T11:07:48.477Z,3.10
2022-11-06T11:10:39.527Z,4.50
2022-11-06T11:13:22.469Z,3.60
2022-11-06T11:15:53.220Z,4.00
2022-11-06T11:18:31.265Z,3.60
2022-11-06T11:21:16.465Z,3.60
2022-11-06T11:23:47.951Z,2.70
2022-11-06T11:26:27.580Z,4.00
2022-11-06T11:29:00.303Z,1.00
2022-11-06T11:31:35.934Z,2.00
2022-11-06T11:34:19.951Z,1.60
2022-11-06T11:37:08.452Z,2.40
2022-11-06T11:39:45.206Z,3.70
2022-11-06T11:42:35.177Z,2.00
2022-11-06T11:45:21.118Z,2.60
2022-11-06T11:47:53.035Z,2.00
2022-11-06T11:50:34.991Z,3.00
2022-11-06T11:53:20.410Z,2.80
2022-11-06T11:55:53.860Z,3.20
2022-11-06T11:58:28.052Z,3.50
2022-11-06T12:01:02.445Z,2.30
2022-11-06T12:03:36.041Z,2.50
2022-11-06T12:06:13.887Z,2.80
2022-11-06T12:08:50.389Z,4.70
2022-11-06T12:11:26.093Z,3.40
2022-11-06T12:14:27.213Z,5.30
2022-11-06T12:17:02.226Z,3.00
2022-11-06T12:19:37.294Z,2.80
2022-11-06T12:22:13.903Z,2.70
2022-11-06T12:24:53.342Z,3.00
2022-11-06T12:27:28.207Z,2.80
2022-11-06T12:30:06.556Z,2.20
2022-11-06T12:32:54.138Z,2.50
2022-11-06T12:35:29.115Z,2.30
2022-11-06T12:38:12.236Z,2.60
2022-11-06T12:40:48.406Z,1.90
2022-11-06T12:43:26.810Z,2.50
2022-11-06T12:46:30.921Z,2.60
2022-11-06T12:49:31.891Z,2.20
2022-11-06T12:52:17.195Z,2.20
2022-11-06T12:55:05.536Z,1.60
2022-11-06T12:57:50.487Z,1.70
2022-11-06T13:00:30.187Z,2.40
2022-11-06T13:03:29.748Z,1.80
2022-11-06T13:06:12.043Z,2.00
2022-11-06T13:08:52.369Z,2.10
2022-11-06T13:11:34.602Z,2.10
2022-11-06T13:14:15.101Z,4.10
2022-11-06T13:16:56.146Z,1.90
2022-11-06T13:19:35.623Z,2.20
2022-11-06T13:22:21.789Z,2.10
2022-11-06T13:25:00.731Z,2.90
2022-11-06T13:27:41.058Z,3.00
2022-11-06T13:30:18.735Z,1.20
2022-11-06T13:33:02.506Z,2.90
2022-11-06T13:35:37.672Z,4.00
2022-11-06T13:38:15.489Z,2.20
2022-11-06T13:40:50.684Z,3.40
2022-11-06T13:43:24.728Z,2.70
2022-11-06T13:46:03.268Z,3.80
2022-11-06T13:51:16.897Z,2.20
2022-11-06T13:54:00.116Z,2.90
2022-11-06T13:56:55.078Z,2.80
2022-11-06T13:59:53.944Z,4.80
2022-11-06T14:02:40.810Z,3.90
2022-11-06T14:05:42.853Z,3.50
2022-11-06T14:08:20.491Z,4.80
2022-11-06T14:10:58.614Z,4.50
2022-11-06T14:13:33.233Z,4.40
2022-11-06T14:16:29.033Z,6.50
2022-11-06T14:19:05.974Z,6.10
2022-11-06T14:21:55.820Z,6.40
2022-11-06T14:24:37.176Z,6.90
2022-11-06T14:27:11.160Z,8.50
2022-11-06T14:29:59.147Z,7.30
2022-11-06T14:32:49.699Z,10.00
2022-11-06T14:35:52.831Z,9.50
2022-11-06T14:38:38.078Z,7.80
2022-11-06T14:41:51.395Z,7.70
2022-11-06T14:44:41.605Z,9.70
2022-11-06T14:47:26.972Z,9.30
2022-11-06T14:50:02.753Z,10.40
2022-11-06T14:52:43.831Z,6.90
2022-11-06T14:55:28.390Z,7.30
2022-11-06T14:58:12.616Z,8.70
2022-11-06T15:00:50.763Z,9.20
2022-11-06T15:03:35.893Z,8.30
2022-11-06T15:06:22.914Z,11.40
2022-11-06T15:09:02.435Z,10.00
2022-11-06T15:11:59.881Z,9.90
2022-11-06T15:14:59.147Z,8.30
2022-11-06T15:17:34.527Z,10.60
2022-11-06T15:20:25.947Z,9.00
2022-11-06T15:23:04.247Z,9.30
2022-11-06T15:25:40.409Z,11.90
2022-11-06T15:28:18.865Z,11.40
2022-11-06T15:30:51.908Z,10.80
2022-11-06T15:33:29.923Z,9.00
2022-11-06T15:36:04.363Z,10.00
2022-11-06T15:38:41.178Z,9.10
2022-11-06T15:41:17.598Z,12.60
2022-11-06T15:43:51.218Z,10.70
2022-11-06T15:46:25.873Z,9.50
2022-11-06T15:49:20.344Z,12.50
2022-11-06T15:51:57.301Z,9.90
2022-11-06T15:54:37.179Z,10.00
2022-11-06T15:57:17.278Z,11.50
2022-11-06T15:59:48.606Z,10.90
2022-11-06T16:02:22.400Z,8.50
2022-11-06T16:04:54.673Z,11.10
2022-11-06T16:07:27.633Z,10.50
2022-11-06T16:09:58.834Z,10.70
2022-11-06T16:12:31.690Z,10.20
2022-11-06T16:15:02.555Z,12.10
2022-11-06T16:17:33.936Z,11.10
2022-11-06T16:20:05.775Z,10.70
2022-11-06T16:22:36.629Z,10.00
2022-11-06T16:25:09.436Z,9.90
2022-11-06T16:30:25.645Z,10.20
2022-11-06T16:32:56.735Z,13.00
2022-11-06T16:35:36.119Z,10.50
2022-11-06T16:38:42.096Z,14.00
2022-11-06T16:41:35.252Z,12.40
2022-11-06T16:44:31.449Z,11.60
2022-11-06T16:47:20.335Z,11.90
2022-11-06T16:49:54.413Z,12.00
2022-11-06T16:52:29.715Z,15.40
2022-11-06T16:55:03.795Z,20.60
2022-11-06T16:57:37.966Z,11.60
2022-11-06T17:00:24.446Z,12.20
2022-11-06T17:02:57.574Z,11.90
2022-11-06T17:05:32.087Z,12.50
2022-11-06T17:08:22.544Z,10.90
2022-11-06T17:10:54.535Z,11.60
2022-11-06T17:13:27.116Z,11.70
2022-11-06T17:16:00.019Z,16.30
2022-11-06T17:18:33.553Z,11.10
2022-11-06T17:21:06.570Z,11.20
2022-11-06T17:23:37.477Z,13.70
2022-11-06T17:26:14.252Z,12.30
2022-11-06T17:28:45.244Z,12.30
2022-11-06T17:31:19.716Z,11.00
2022-11-06T17:33:51.303Z,12.80
2022-11-06T17:36:25.166Z,13.30
2022-11-06T17:38:57.243Z,16.80
2022-11-06T17:41:32.283Z,10.20
2022-11-06T17:44:05.580Z,13.10
2022-11-06T17:46:39.005Z,13.00
2022-11-06T17:49:15.748Z,16.60
2022-11-06T17:51:56.238Z,10.80
2022-11-06T17:56:58.654Z,12.20
2022-11-06T17:59:29.491Z,11.00
2022-11-06T18:02:00.603Z,14.60
2022-11-06T18:04:35.247Z,18.70
2022-11-06T18:07:15.399Z,9.90
2022-11-06T18:09:46.601Z,14.80
2022-11-06T18:12:29.942Z,18.30
2022-11-06T18:15:04.437Z,11.50
2022-11-06T18:17:45.443Z,14.60
2022-11-06T18:20:17.786Z,16.20
2022-11-06T18:22:51.106Z,14.80
2022-11-06T18:25:21.956Z,15.30
2022-11-06T18:27:52.579Z,13.40
2022-11-06T18:30:23.545Z,18.10
2022-11-06T18:32:54.291Z,14.80
2022-11-06T18:35:25.178Z,19.00
2022-11-06T18:37:55.857Z,17.90
2022-11-06T18:40:26.647Z,19.60
2022-11-06T18:42:57.366Z,11.90
2022-11-06T18:45:28.228Z,17.70
2022-11-06T18:47:59.036Z,17.80
2022-11-06T18:50:31.594Z,12.40
2022-11-06T18:53:02.399Z,15.00
2022-11-06T18:55:33.601Z,15.10
2022-11-06T18:58:05.591Z,14.90
2022-11-06T19:00:36.292Z,14.30
2022-11-06T19:03:07.693Z,18.00
2022-11-06T19:05:38.519Z,16.20
2022-11-06T19:08:09.666Z,12.90
2022-11-06T19:10:41.252Z,13.70
2022-11-06T19:13:12.197Z,12.80
2022-11-06T19:15:43.012Z,13.30
2022-11-06T19:18:17.276Z,12.80
2022-11-06T19:20:48.366Z,12.40
2022-11-06T19:23:20.865Z,13.30
2022-11-06T19:26:04.622Z,9.30
2022-11-06T19:28:46.599Z,11.50
2022-11-06T19:33:48.180Z,11.10
2022-11-06T19:36:18.833Z,11.50
2022-11-06T19:38:49.607Z,13.70
2022-11-06T19:41:20.482Z,15.50
2022-11-06T19:43:51.496Z,12.80
2022-11-06T19:46:26.013Z,12.80
2022-11-06T19:48:59.468Z,11.10
2022-11-06T19:51:30.804Z,14.70
2022-11-06T19:54:02.481Z,12.10
2022-11-06T19:56:33.508Z,13.40
2022-11-06T19:59:04.717Z,12.30
2022-11-06T20:01:35.575Z,10.50
2022-11-06T20:04:06.733Z,9.60
2022-11-06T20:06:39.113Z,12.70
2022-11-06T20:09:10.426Z,13.30
2022-11-06T20:11:41.209Z,12.20
2022-11-06T20:14:11.885Z,12.90
2022-11-06T20:16:42.768Z,12.40
2022-11-06T20:19:14.027Z,11.80
2022-11-06T20:21:44.645Z,10.70
2022-11-06T20:24:15.698Z,14.00
2022-11-06T20:26:46.610Z,10.40
2022-11-06T20:29:17.556Z,10.40
2022-11-06T20:31:48.265Z,8.90
2022-11-06T20:34:19.424Z,9.80
2022-11-06T20:36:50.347Z,9.90
2022-11-06T20:39:21.072Z,10.40
2022-11-06T20:41:52.824Z,12.00
2022-11-06T20:44:23.547Z,10.00
2022-11-06T20:46:54.544Z,11.50
2022-11-06T20:49:25.355Z,11.70
2022-11-06T20:52:13.274Z,8.50
2022-11-06T20:54:47.500Z,10.70
2022-11-06T20:57:18.792Z,10.80
2022-11-06T20:59:50.000Z,10.50
2022-11-06T21:02:21.018Z,10.70
2022-11-06T21:04:51.856Z,10.50
2022-11-06T21:07:22.751Z,11.00
2022-11-06T21:09:53.752Z,12.70
2022-11-06T21:12:25.624Z,10.90
2022-11-06T21:14:56.343Z,16.90
2022-11-06T21:17:27.080Z,13.10
2022-11-06T21:19:57.789Z,9.60
2022-11-06T21:22:28.496Z,12.00
2022-11-06T21:24:59.073Z,12.70
2022-11-06T21:27:29.904Z,10.60
2022-11-06T21:30:00.573Z,10.60
2022-11-06T21:32:31.436Z,10.10
2022-11-06T21:35:02.087Z,12.50
2022-11-06T21:37:34.320Z,11.90
2022-11-06T21:40:05.766Z,11.30
2022-11-06T21:42:36.632Z,14.50
2022-11-06T21:45:12.370Z,10.30
2022-11-06T21:47:45.589Z,10.70
2022-11-06T21:50:28.198Z,12.50
2022-11-06T21:53:23.380Z,10.70
2022-11-06T21:56:00.313Z,12.20
2022-11-06T21:58:31.177Z,11.40
2022-11-06T22:01:05.277Z,11.70
2022-11-06T22:03:36.484Z,11.70
2022-11-06T22:06:12.340Z,10.60
2022-11-06T22:08:46.116Z,11.90
2022-11-06T22:11:19.879Z,9.90
2022-11-06T22:13:51.952Z,9.90
2022-11-06T22:16:25.601Z,12.00
2022-11-06T22:18:56.601Z,9.00
2022-11-06T22:21:31.193Z,9.80
2022-11-06T22:24:02.115Z,7.00
2022-11-06T22:26:35.374Z,8.50
2022-11-06T22:29:09.291Z,8.90
2022-11-06T22:31:40.146Z,10.70
2022-11-06T22:34:12.582Z,7.80
2022-11-06T22:36:43.681Z,7.80
2022-11-06T22:39:14.968Z,6.90
2022-11-06T22:41:45.657Z,6.10
2022-11-06T22:44:16.867Z,7.30
2022-11-06T22:46:47.924Z,10.10
2022-11-06T22:49:18.714Z,8.00
2022-11-06T22:51:49.508Z,9.10
2022-11-06T22:54:20.437Z,6.80
2022-11-06T22:56:51.739Z,9.10
2022-11-06T22:59:22.528Z,10.10
2022-11-06T23:01:53.937Z,8.00
2022-11-06T23:04:24.910Z,8.50
2022-11-06T23:06:55.581Z,8.70
2022-11-06T23:09:26.447Z,8.30
2022-11-06T23:11:57.136Z,13.20
2022-11-06T23:14:29.445Z,8.50
2022-11-06T23:17:01.974Z,8.70
2022-11-06T23:19:34.110Z,9.20
2022-11-06T23:22:22.621Z,8.80
2022-11-06T23:24:56.035Z,13.30
2022-11-06T23:27:26.856Z,10.30
2022-11-06T23:30:00.650Z,10.00
2022-11-06T23:32:32.513Z,8.80
2022-11-06T23:35:04.800Z,8.70
2022-11-06T23:37:36.466Z,10.30
2022-11-06T23:40:09.302Z,10.80
2022-11-06T23:42:40.326Z,7.70
2022-11-06T23:45:30.905Z,9.70
2022-11-06T23:48:05.997Z,9.20
2022-11-06T23:50:39.234Z,9.10
2022-11-06T23:53:10.509Z,10.20
2022-11-06T23:55:41.293Z,10.50
2022-11-06T23:58:12.099Z,7.60
